Time;durP1;ratioP1;P1;durP2;ratioP2;P2;SDS_P1;SDS_P2;PMS_P1;PMS_P2;Temp;Humidity;BMP_temperature;BMP_pressure;BME280_temperature;BME280_humidity;BME280_pressure;Samples;Min_cycle;Max_cycle;Signal;HPM_P1;HPM_P2
2020/12/22 00:00:05;1048432.00;3.49;1818.44;0.00;0.00;0.62;;;;;25.10;37.80;;;;;;2244386;61;7553;-64
2020/12/22 00:02:32;521816.00;1.74;899.39;0.00;0.00;0.62;;;;;25.10;37.80;;;;;;2240467;61;6429;-65
2020/12/22 00:04:58;1047649.00;3.49;1817.05;0.00;0.00;0.62;;;;;25.10;37.80;;;;;;2238123;61;6136;-64
2020/12/22 00:07:24;117547080.00;391.82;65790860.00;28634.00;0.10;50.22;;;;;25.10;38.00;;;;;;2238244;61;7156;-65
2020/12/22 00:09:51;1494858.00;4.98;2633.45;10242.00;0.03;18.37;;;;;25.10;37.90;;;;;;2239538;61;5776;-65
2020/12/22 00:12:17;118159696.00;393.87;66825804.00;6903.00;0.02;12.58;;;;;25.10;37.80;;;;;;2240707;61;7265;-65
2020/12/22 00:14:44;1677683.00;5.59;2982.14;36287.00;0.12;63.46;;;;;25.10;37.80;;;;;;2236739;61;7316;-65
2020/12/22 00:17:11;1823659.00;6.08;3268.30;38249.00;0.13;66.86;;;;;25.10;38.40;;;;;;2238190;61;5860;-64
2020/12/22 00:19:37;117996592.00;393.32;66549200.00;0.00;0.00;0.62;;;;;25.10;37.90;;;;;;2234327;61;7241;-64
2020/12/22 00:22:04;2001585.00;6.67;3627.58;3181.00;0.01;6.13;;;;;25.10;37.80;;;;;;2241625;61;6982;-64
2020/12/22 00:24:30;1717077.00;5.72;3058.65;7636.00;0.03;13.85;;;;;25.10;37.80;;;;;;2243939;61;7539;-65
2020/12/22 00:26:56;1709970.00;5.70;3044.81;6580.00;0.02;12.02;;;;;25.10;37.80;;;;;;2240457;61;6911;-65
2020/12/22 00:29:22;1847266.00;6.16;3315.28;19824.00;0.07;34.97;;;;;25.20;37.80;;;;;;2241827;61;7160;-64
2020/12/22 00:32:00;2144477.00;7.15;3925.33;7431.00;0.02;13.50;;;;;25.10;37.80;;;;;;2241951;61;5739;-65
2020/12/22 00:34:30;1672452.00;5.57;2972.02;0.00;0.00;0.62;;;;;25.10;37.80;;;;;;2241478;61;5670;-65
2020/12/22 00:36:59;1277842.00;4.26;2231.61;9361.00;0.03;16.84;;;;;25.10;37.80;;;;;;2238518;61;7519;-64
2020/12/22 00:39:28;1443821.00;4.81;2537.85;32353.00;0.11;56.66;;;;;25.10;37.80;;;;;;2241610;61;7303;-65
2020/12/22 00:41:56;924977.00;3.08;1600.03;0.00;0.00;0.62;;;;;25.10;37.80;;;;;;2241168;61;7253;-64
2020/12/22 00:44:24;1617583.00;5.39;2866.39;6428.00;0.02;11.76;;;;;25.10;37.80;;;;;;2244891;61;7426;-65
2020/12/22 00:46:54;1254553.00;4.18;2189.17;35460.00;0.12;62.03;;;;;25.10;37.90;;;;;;2242182;61;7686;-64
2020/12/22 00:49:21;1159227.00;3.86;2016.67;5480.00;0.02;10.12;;;;;25.10;37.90;;;;;;2245335;61;7592;-64
2020/12/22 00:51:47;1034483.00;3.45;1793.64;0.00;0.00;0.62;;;;;25.10;38.00;;;;;;2238108;61;7358;-64
2020/12/22 00:54:14;961721.00;3.21;1664.79;0.00;0.00;0.62;;;;;25.10;37.90;;;;;;2237793;61;7793;-64
2020/12/22 00:56:40;670599.00;2.24;1156.29;4298.00;0.01;8.07;;;;;25.00;38.00;;;;;;2242077;61;7179;-64
2020/12/22 00:59:07;1401484.00;4.67;2459.08;7496.00;0.02;13.61;;;;;25.10;38.00;;;;;;2237877;61;7418;-64
2020/12/22 01:01:33;1418183.00;4.73;2490.09;21163.00;0.07;37.28;;;;;25.00;37.90;;;;;;2241988;61;7478;-64
2020/12/22 01:04:00;787740.00;2.63;1359.75;0.00;0.00;0.62;;;;;25.00;38.00;;;;;;2241349;61;7350;-64
2020/12/22 01:06:35;624614.00;2.08;1076.74;1704.00;0.01;3.57;;;;;25.00;37.90;;;;;;2241892;61;7661;-63
2020/12/22 01:09:01;1156714.00;3.86;2012.15;0.00;0.00;0.62;;;;;25.00;37.90;;;;;;2239036;61;7380;-65
2020/12/22 01:11:31;1053894.00;3.51;1828.16;0.00;0.00;0.62;;;;;25.10;38.00;;;;;;2245121;61;7788;-64
2020/12/22 01:13:58;1193887.00;3.98;2079.17;0.00;0.00;0.62;;;;;25.00;38.00;;;;;;2242533;61;7305;-65
2020/12/22 01:16:24;1037125.00;3.46;1798.34;1262.00;0.00;2.81;;;;;25.10;37.90;;;;;;2240333;61;7476;-64
2020/12/22 01:18:50;1065702.00;3.55;1849.19;0.00;0.00;0.62;;;;;25.10;37.90;;;;;;2242081;61;7003;-64
2020/12/22 01:21:18;1192980.00;3.98;2077.53;19176.00;0.06;33.84;;;;;25.10;37.90;;;;;;2241319;61;7198;-64
2020/12/22 01:23:45;1191825.00;3.97;2075.45;0.00;0.00;0.62;;;;;25.00;37.90;;;;;;2241863;61;6942;-64
2020/12/22 01:26:11;1380092.00;4.60;2419.45;36577.00;0.12;63.97;;;;;25.10;37.90;;;;;;2243879;61;7195;-64
2020/12/22 01:28:37;1093618.00;3.65;1899.01;18677.00;0.06;32.98;;;;;25.00;38.00;;;;;;2241477;61;7105;-65
2020/12/22 01:31:04;1481487.00;4.94;2608.33;9598.00;0.03;17.25;;;;;25.00;37.90;;;;;;2240656;61;7336;-64
2020/12/22 01:33:30;1852974.00;6.18;3326.67;4982.00;0.02;9.25;;;;;25.00;37.90;;;;;;2237133;61;7538;-64
2020/12/22 01:35:56;1108904.00;3.70;1926.35;0.00;0.00;0.62;;;;;25.00;37.90;;;;;;2242173;61;7481;-64
2020/12/22 01:38:23;1331704.00;4.44;2330.25;3916.00;0.01;7.41;;;;;25.00;37.90;;;;;;2240207;61;5796;-64
2020/12/22 01:40:50;1450056.00;4.83;2549.49;5721.00;0.02;10.54;;;;;25.00;38.00;;;;;;2240498;61;5887;-64
2020/12/22 01:43:16;906516.00;3.02;1567.57;5774.00;0.02;10.63;;;;;25.00;38.00;;;;;;2243468;61;5686;-64
2020/12/22 01:45:43;117561656.00;391.87;65815360.00;5517.00;0.02;10.18;;;;;25.00;38.00;;;;;;2238528;61;7750;-64
2020/12/22 01:48:10;1038359.00;3.46;1800.53;3187.00;0.01;6.14;;;;;25.00;38.10;;;;;;2241006;61;6777;-65
2020/12/22 01:50:37;609921.00;2.03;1051.35;24578.00;0.08;43.20;;;;;24.90;38.00;;;;;;2234472;61;6981;-65
2020/12/22 01:53:04;1326777.00;4.42;2321.19;0.00;0.00;0.62;;;;;25.00;38.00;;;;;;2238633;61;8219;-65
2020/12/22 01:55:30;1628105.00;5.43;2886.57;4521.00;0.02;8.46;;;;;24.90;38.00;;;;;;2241193;61;8237;-65
2020/12/22 01:57:56;1502562.00;5.01;2647.94;0.00;0.00;0.62;;;;;25.00;38.50;;;;;;2236588;61;8414;-65
2020/12/22 02:00:23;777335.00;2.59;1341.62;40166.00;0.13;70.18;;;;;25.00;38.00;;;;;;2241378;61;7013;-65
2020/12/22 02:02:49;896129.00;2.99;1549.32;4291.00;0.01;8.06;;;;;25.00;37.90;;;;;;2245477;61;7929;-65
2020/12/22 02:05:16;1144428.00;3.81;1990.06;0.00;0.00;0.62;;;;;25.00;37.80;;;;;;2236648;61;6794;-65
2020/12/22 02:07:42;994347.00;3.31;1722.46;0.00;0.00;0.62;;;;;25.00;37.80;;;;;;2237808;61;7306;-65
2020/12/22 02:10:09;936987.00;3.12;1621.18;13486.00;0.04;23.99;;;;;25.00;37.80;;;;;;2236655;61;7518;-65
2020/12/22 02:12:40;901763.00;3.01;1559.22;0.00;0.00;0.62;;;;;25.00;37.90;;;;;;2238078;61;7124;-65
2020/12/22 02:15:07;1214055.00;4.05;2115.65;0.00;0.00;0.62;;;;;25.00;37.80;;;;;;2241920;61;7063;-65
2020/12/22 02:17:34;851538.00;2.84;1471.16;0.00;0.00;0.62;;;;;25.00;37.80;;;;;;2238676;61;5643;-65
2020/12/22 02:20:03;1104291.00;3.68;1918.10;0.00;0.00;0.62;;;;;25.00;37.80;;;;;;2243041;61;5700;-65
2020/12/22 02:22:29;1309608.00;4.37;2289.70;11527.00;0.04;20.59;;;;;24.90;37.90;;;;;;2237627;61;7735;-64
2020/12/22 02:24:55;1084908.00;3.62;1883.46;0.00;0.00;0.62;;;;;24.90;38.00;;;;;;2241783;61;5901;-64
2020/12/22 02:27:25;992084.00;3.31;1718.46;0.00;0.00;0.62;;;;;24.90;38.00;;;;;;2241628;61;7116;-64
2020/12/22 02:29:51;1025037.00;3.42;1776.87;0.00;0.00;0.62;;;;;24.90;38.00;;;;;;2245081;61;7494;-64
2020/12/22 02:32:18;1191344.00;3.97;2074.58;0.00;0.00;0.62;;;;;24.90;38.00;;;;;;2238742;61;7768;-64
2020/12/22 02:34:44;1090519.00;3.64;1893.48;0.00;0.00;0.62;;;;;25.00;37.90;;;;;;2241307;61;7478;-64
2020/12/22 02:37:10;978202.00;3.26;1693.90;0.00;0.00;0.62;;;;;25.00;37.90;;;;;;2242410;61;7458;-64
2020/12/22 02:39:37;1442384.00;4.81;2535.17;0.00;0.00;0.62;;;;;24.90;38.00;;;;;;2239762;61;5833;-64
2020/12/22 02:42:03;1154548.00;3.85;2008.25;19452.00;0.06;34.32;;;;;24.90;38.00;;;;;;2241225;61;8104;-65
2020/12/22 02:44:29;117307368.00;391.02;65388824.00;19257.00;0.06;33.98;;;;;24.90;38.00;;;;;;2240946;61;7307;-64
2020/12/22 02:46:56;1202915.00;4.01;2095.49;0.00;0.00;0.62;;;;;24.90;38.00;;;;;;2241561;61;6082;-64
2020/12/22 02:49:32;1373921.00;4.58;2408.04;20805.00;0.07;36.66;;;;;24.90;38.00;;;;;;2243770;61;6225;-64
2020/12/22 02:51:59;883339.00;2.94;1526.88;0.00;0.00;0.62;;;;;24.90;37.90;;;;;;2241262;61;6457;-64
2020/12/22 02:54:25;1864656.00;6.22;3350.02;47898.00;0.16;83.55;;;;;24.90;37.90;;;;;;2242025;61;7333;-65
2020/12/22 02:56:51;1204144.00;4.01;2097.71;16016.00;0.05;28.37;;;;;24.90;38.00;;;;;;2241814;61;7386;-64
2020/12/22 02:59:18;799140.00;2.66;1379.62;0.00;0.00;0.62;;;;;24.90;38.00;;;;;;2239122;61;7233;-65
2020/12/22 03:01:44;923260.00;3.08;1597.01;7792.00;0.03;14.12;;;;;24.90;37.90;;;;;;2240916;61;7532;-64
2020/12/22 03:04:12;1367247.00;4.56;2395.71;9207.00;0.03;16.58;;;;;25.00;37.90;;;;;;2239820;61;4110;-65
2020/12/22 03:06:39;834225.00;2.78;1440.88;0.00;0.00;0.62;;;;;24.90;37.90;;;;;;2231241;61;7547;-64
2020/12/22 03:09:07;697386.00;2.32;1202.71;7729.00;0.03;14.01;;;;;24.90;38.50;;;;;;2240360;61;7283;-65
2020/12/22 03:11:33;1161862.00;3.87;2021.42;13158.00;0.04;23.42;;;;;24.90;38.00;;;;;;2238064;61;5609;-64
2020/12/22 03:13:59;884079.00;2.95;1528.17;6847.00;0.02;12.49;;;;;24.90;37.90;;;;;;2233692;61;7216;-65
2020/12/22 03:16:26;1411586.00;4.71;2477.83;11298.00;0.04;20.20;;;;;24.90;37.90;;;;;;2245446;61;7102;-64
2020/12/22 03:18:52;1303368.00;4.34;2278.27;24594.00;0.08;43.22;;;;;24.90;38.00;;;;;;2238188;61;7233;-65
2020/12/22 03:21:19;1231350.00;4.10;2147.00;12246.00;0.04;21.84;;;;;24.90;37.80;;;;;;2240343;61;7461;-65
2020/12/22 03:23:48;1345937.00;4.49;2356.43;21791.00;0.07;38.37;;;;;24.90;37.90;;;;;;2241481;61;7149;-64
2020/12/22 03:26:14;1847281.00;6.16;3315.31;10037.00;0.03;18.01;;;;;24.80;37.90;;;;;;2243364;61;7336;-64
2020/12/22 03:28:40;1771918.00;5.91;3166.03;26394.00;0.09;46.34;;;;;24.90;37.90;;;;;;2242989;61;6067;-65
2020/12/22 03:31:06;1246501.00;4.16;2174.52;0.00;0.00;0.62;;;;;24.90;38.00;;;;;;2238382;61;7477;-64
2020/12/22 03:33:35;1480081.00;4.93;2605.69;0.00;0.00;0.62;;;;;24.90;38.00;;;;;;2246002;61;5950;-65
2020/12/22 03:36:02;2046176.00;6.82;3719.57;72816.00;0.24;126.63;;;;;24.90;38.00;;;;;;2237851;61;7293;-64
2020/12/22 03:38:28;1277828.00;4.26;2231.58;13286.00;0.04;23.64;;;;;24.90;38.00;;;;;;2238760;61;6919;-64
2020/12/22 03:40:54;1072676.00;3.58;1861.63;0.00;0.00;0.62;;;;;24.90;37.90;;;;;;2241440;61;7408;-64
2020/12/22 03:43:20;950208.00;3.17;1644.48;0.00;0.00;0.62;;;;;24.90;37.90;;;;;;2241321;61;6182;-64
2020/12/22 03:45:50;1580731.00;5.27;2795.97;10169.00;0.03;18.24;;;;;24.90;37.80;;;;;;2242970;61;7810;-64
2020/12/22 03:48:17;1893222.00;6.31;3407.33;3941.00;0.01;7.45;;;;;24.90;38.00;;;;;;2237694;61;8495;-64
2020/12/22 03:50:43;1283352.00;4.28;2241.67;8389.00;0.03;15.16;;;;;24.90;38.00;;;;;;2239143;61;6723;-64
2020/12/22 03:53:09;1458170.00;4.86;2564.65;30063.00;0.10;52.69;;;;;24.90;38.00;;;;;;2241270;61;7247;-64
2020/12/22 03:55:36;118466656.00;394.89;67348440.00;62217.00;0.21;108.31;;;;;24.90;38.00;;;;;;2238689;61;7267;-64
2020/12/22 03:58:02;118121440.00;393.74;66760856.00;10081.00;0.03;18.09;;;;;24.90;38.00;;;;;;2238589;61;7463;-64
2020/12/22 04:00:28;1433064.00;4.78;2517.79;49817.00;0.17;86.87;;;;;24.90;38.00;;;;;;2240502;61;7370;-64
2020/12/22 04:02:54;1599593.00;5.33;2831.96;11557.00;0.04;20.65;;;;;24.90;38.00;;;;;;2237805;61;6316;-64
2020/12/22 04:05:23;793876.00;2.65;1370.45;9056.00;0.03;16.31;;;;;24.90;37.90;;;;;;2238015;61;8235;-64
2020/12/22 04:07:49;1120661.00;3.74;1947.41;0.00;0.00;0.62;;;;;24.90;37.80;;;;;;2242188;61;7206;-64
2020/12/22 04:10:16;728372.00;2.43;1256.47;8251.00;0.03;14.92;;;;;24.90;37.90;;;;;;2238408;61;7407;-64
2020/12/22 04:12:42;446381.00;1.49;769.56;5771.00;0.02;10.62;;;;;24.90;37.80;;;;;;2244644;61;7482;-64
2020/12/22 04:15:08;1341016.00;4.47;2347.37;70453.00;0.23;122.54;;;;;24.80;37.90;;;;;;2238522;61;7292;-64
2020/12/22 04:17:34;1382895.00;4.61;2424.64;4816.00;0.02;8.97;;;;;24.80;37.90;;;;;;2242059;61;6916;-64
2020/12/22 04:20:04;477307.00;1.59;822.76;0.00;0.00;0.62;;;;;24.90;38.00;;;;;;2241321;61;7329;-65
2020/12/22 04:22:30;977666.00;3.26;1692.96;3266.00;0.01;6.28;;;;;24.90;37.80;;;;;;2238050;61;7359;-64
2020/12/22 04:24:57;786634.00;2.62;1357.82;0.00;0.00;0.62;;;;;24.90;37.80;;;;;;2242341;61;7206;-65
2020/12/22 04:27:23;1650444.00;5.50;2929.54;4604.00;0.02;8.60;;;;;24.90;37.80;;;;;;2240744;61;7209;-65
2020/12/22 04:29:49;1723203.00;5.74;3070.60;36555.00;0.12;63.93;;;;;24.90;37.90;;;;;;2242475;61;5894;-64
2020/12/22 04:32:19;1360845.00;4.54;2383.90;8259.00;0.03;14.93;;;;;24.90;37.90;;;;;;2242060;61;7193;-64
2020/12/22 04:34:46;1469212.00;4.90;2585.32;5291.00;0.02;9.79;;;;;24.90;38.60;;;;;;2238341;61;7227;-64
2020/12/22 04:37:13;118888736.00;396.30;68071504.00;18396.00;0.06;32.49;;;;;24.90;37.90;;;;;;2240315;61;7326;-64
2020/12/22 04:39:40;1294918.00;4.32;2262.81;31080.00;0.10;54.45;;;;;24.90;37.80;;;;;;2239237;61;7060;-64
2020/12/22 04:42:08;1844478.00;6.15;3309.72;0.00;0.00;0.62;;;;;24.80;37.90;;;;;;2243456;61;5800;-64
2020/12/22 04:44:34;1350582.00;4.50;2364.98;8314.00;0.03;15.03;;;;;24.80;37.90;;;;;;2242139;61;5878;-65
2020/12/22 04:47:06;1363395.00;4.54;2388.60;0.00;0.00;0.62;;;;;24.80;37.90;;;;;;2241765;61;7156;-64
2020/12/22 04:49:38;1471157.00;4.90;2588.96;52916.00;0.18;92.23;;;;;24.80;37.90;;;;;;2241302;61;5837;-64
2020/12/22 04:52:04;1386995.00;4.62;2432.23;35816.00;0.12;62.65;;;;;24.80;37.90;;;;;;2239829;61;5864;-64
2020/12/22 04:54:32;1631214.00;5.44;2892.54;5018.00;0.02;9.32;;;;;24.80;37.90;;;;;;2241221;61;7420;-65
2020/12/22 04:56:59;1372904.00;4.58;2406.16;4311.00;0.01;8.09;;;;;24.90;38.00;;;;;;2235260;61;5759;-64
2020/12/22 04:59:27;1157534.00;3.86;2013.63;13954.00;0.05;24.80;;;;;24.90;37.90;;;;;;2237706;61;7015;-65
2020/12/22 05:01:54;1405896.00;4.69;2467.26;11892.00;0.04;21.23;;;;;24.90;37.90;;;;;;2238203;61;6887;-65
2020/12/22 05:04:20;571369.00;1.90;984.81;0.00;0.00;0.62;;;;;24.90;37.90;;;;;;2237296;61;5723;-64
2020/12/22 05:06:47;1225964.00;4.09;2137.23;7497.00;0.02;13.61;;;;;24.90;37.90;;;;;;2238677;61;7022;-64
2020/12/22 05:09:14;1160290.00;3.87;2018.59;37766.00;0.13;66.02;;;;;24.90;37.90;;;;;;2236523;61;7027;-65
2020/12/22 05:11:40;1427582.00;4.76;2507.58;9308.00;0.03;16.75;;;;;24.90;37.90;;;;;;2237319;61;5353;-64
2020/12/22 05:14:07;1040529.00;3.47;1804.39;34769.00;0.12;60.84;;;;;24.90;37.90;;;;;;2244306;61;5557;-64
2020/12/22 05:16:37;1078807.00;3.60;1872.56;0.00;0.00;0.62;;;;;24.90;37.90;;;;;;2240991;61;7513;-64
2020/12/22 05:19:04;1121294.00;3.74;1948.55;0.00;0.00;0.62;;;;;24.90;37.90;;;;;;2239442;61;5880;-65
2020/12/22 05:21:40;1173766.00;3.91;2042.86;0.00;0.00;0.62;;;;;24.80;37.90;;;;;;2237467;61;7516;-64
2020/12/22 05:24:07;1184533.00;3.95;2062.28;5734.00;0.02;10.56;;;;;24.80;37.90;;;;;;2235283;61;7365;-65
2020/12/22 05:26:40;1220027.00;4.07;2126.47;21819.00;0.07;38.42;;;;;24.90;37.90;;;;;;2238160;61;7353;-65
2020/12/22 05:29:15;1176580.00;3.92;2047.93;23023.00;0.08;40.50;;;;;24.90;37.90;;;;;;2241264;61;5507;-65
2020/12/22 05:31:47;1152286.00;3.84;2004.19;6630.00;0.02;12.11;;;;;24.90;37.90;;;;;;2239315;61;7456;-65
2020/12/22 05:34:15;1603405.00;5.34;2839.25;26226.00;0.09;46.05;;;;;24.90;37.80;;;;;;2240995;61;7289;-65
2020/12/22 05:36:43;1045328.00;3.48;1812.92;20318.00;0.07;35.82;;;;;24.80;37.80;;;;;;2241682;61;8229;-65
2020/12/22 05:39:11;675946.00;2.25;1165.55;0.00;0.00;0.62;;;;;24.80;37.90;;;;;;2235584;61;7883;-65
2020/12/22 05:41:41;1186625.00;3.96;2066.06;0.00;0.00;0.62;;;;;24.80;37.90;;;;;;2242645;61;7138;-64
2020/12/22 05:44:08;766483.00;2.55;1322.73;14041.00;0.05;24.95;;;;;24.90;37.80;;;;;;2240190;61;5618;-65
2020/12/22 05:46:37;1168488.00;3.89;2033.35;0.00;0.00;0.62;;;;;24.90;37.90;;;;;;2236299;61;7068;-65
2020/12/22 05:49:05;1084630.00;3.62;1882.96;8489.00;0.03;15.33;;;;;24.80;37.80;;;;;;2234348;61;7420;-65
2020/12/22 05:51:44;694687.00;2.32;1198.03;14294.00;0.05;25.39;;;;;24.90;37.90;;;;;;2239856;61;7139;-65
2020/12/22 05:54:15;817775.00;2.73;1412.14;0.00;0.00;0.62;;;;;24.90;37.70;;;;;;2241113;61;7521;-65
2020/12/22 05:56:43;958880.00;3.20;1659.78;0.00;0.00;0.62;;;;;24.90;37.90;;;;;;2241030;61;6318;-65
2020/12/22 05:59:19;1450479.00;4.83;2550.28;0.00;0.00;0.62;;;;;24.80;37.80;;;;;;2237829;61;7399;-65
2020/12/22 06:01:46;1267395.00;4.22;2212.56;18018.00;0.06;31.84;;;;;24.80;37.90;;;;;;2236175;61;5732;-65
2020/12/22 06:04:12;858189.00;2.86;1482.80;8633.00;0.03;15.58;;;;;24.80;37.90;;;;;;2240494;61;7374;-64
2020/12/22 06:06:40;117535664.00;391.79;65771676.00;0.00;0.00;0.62;;;;;24.80;37.90;;;;;;2240320;61;7347;-63
2020/12/22 06:09:10;904693.00;3.02;1564.36;0.00;0.00;0.62;;;;;24.90;37.90;;;;;;2243747;61;7142;-64
2020/12/22 06:11:39;1816725.00;6.06;3254.54;15003.00;0.05;26.62;;;;;24.80;37.90;;;;;;2242485;61;5607;-64
2020/12/22 06:14:06;751130.00;2.50;1296.02;16671.00;0.06;29.50;;;;;24.80;37.90;;;;;;2246921;61;5577;-64
2020/12/22 06:16:32;787905.00;2.63;1360.04;52271.00;0.17;91.11;;;;;24.80;37.80;;;;;;2242294;61;7204;-64
2020/12/22 06:18:59;1038813.00;3.46;1801.34;0.00;0.00;0.62;;;;;24.80;37.90;;;;;;2242844;61;5585;-65
2020/12/22 06:21:26;903436.00;3.01;1562.16;0.00;0.00;0.62;;;;;24.80;37.90;;;;;;2239971;61;3983;-64
2020/12/22 06:23:55;844884.00;2.82;1459.52;0.00;0.00;0.62;;;;;24.80;38.00;;;;;;2236650;61;5691;-64
2020/12/22 06:26:21;627916.00;2.09;1082.45;11821.00;0.04;21.10;;;;;24.80;38.00;;;;;;2240686;61;7030;-64
2020/12/22 06:28:48;817519.00;2.73;1411.69;0.00;0.00;0.62;;;;;24.70;38.00;;;;;;2242232;61;7126;-64
2020/12/22 06:31:22;1132404.00;3.77;1968.47;12253.00;0.04;21.85;;;;;24.70;38.00;;;;;;2238371;61;7277;-64
2020/12/22 06:33:52;950337.00;3.17;1644.71;15992.00;0.05;28.33;;;;;24.70;38.10;;;;;;2242022;61;5553;-64
2020/12/22 06:36:20;1048349.00;3.49;1818.29;0.00;0.00;0.62;;;;;24.70;38.00;;;;;;2246002;61;7336;-64
2020/12/22 06:38:50;808010.00;2.69;1395.10;14920.00;0.05;26.47;;;;;24.70;38.20;;;;;;2242279;61;7513;-64
2020/12/22 06:41:33;1089895.00;3.63;1892.36;0.00;0.00;0.62;;;;;24.70;38.20;;;;;;2247320;61;5745;-64
2020/12/22 06:44:22;1080164.00;3.60;1874.99;7661.00;0.03;13.90;;;;;24.70;38.20;;;;;;2244131;61;7298;-64
2020/12/22 06:46:54;897566.00;2.99;1551.85;5409.00;0.02;9.99;;;;;24.70;38.10;;;;;;2243632;61;8481;-64
2020/12/22 06:49:49;1044956.00;3.48;1812.26;0.00;0.00;0.62;;;;;24.70;38.20;;;;;;2243563;61;8329;-64
2020/12/22 06:52:38;922385.00;3.07;1595.47;0.00;0.00;0.62;;;;;24.70;38.20;;;;;;2243704;61;7383;-64
2020/12/22 06:55:08;1069714.00;3.57;1856.35;17536.00;0.06;31.00;;;;;24.60;38.10;;;;;;2240031;61;3985;-64
2020/12/22 06:57:45;833155.00;2.78;1439.01;0.00;0.00;0.62;;;;;24.60;38.10;;;;;;2243515;61;7337;-64
2020/12/22 07:00:38;128288168.00;427.63;85545360.00;0.00;0.00;0.62;;;;;24.60;38.20;;;;;;2243577;61;7519;-64
2020/12/22 07:03:16;961897.00;3.21;1665.10;29534.00;0.10;51.78;;;;;24.60;38.20;;;;;;2242008;61;7219;-64
2020/12/22 07:05:47;1193581.00;3.98;2078.62;41171.00;0.14;71.91;;;;;24.70;38.30;;;;;;2246518;61;7292;-64
2020/12/22 07:08:14;817337.00;2.72;1411.38;0.00;0.00;0.62;;;;;24.70;38.20;;;;;;2244966;61;7228;-64
2020/12/22 07:10:46;520108.00;1.73;896.45;0.00;0.00;0.62;;;;;24.70;38.10;;;;;;2241297;61;7103;-64
2020/12/22 07:13:16;637232.00;2.12;1098.55;0.00;0.00;0.62;;;;;24.70;38.70;;;;;;2241227;61;6622;-64
2020/12/22 07:15:45;757982.00;2.53;1307.94;0.00;0.00;0.62;;;;;24.70;38.10;;;;;;2242887;61;5942;-64
2020/12/22 07:18:28;579351.00;1.93;998.58;0.00;0.00;0.62;;;;;24.70;38.10;;;;;;2240683;61;7442;-64
2020/12/22 07:20:58;782187.00;2.61;1350.08;7460.00;0.02;13.55;;;;;24.70;38.00;;;;;;2244650;61;7153;-64
2020/12/22 07:23:24;1198911.00;4.00;2088.25;0.00;0.00;0.62;;;;;24.70;38.00;;;;;;2237690;61;5920;-63
2020/12/22 07:25:51;1541337.00;5.14;2721.15;4979.00;0.02;9.25;;;;;24.70;38.00;;;;;;2241772;61;6973;-64
2020/12/22 07:28:17;1375751.00;4.59;2411.43;18810.00;0.06;33.21;;;;;24.70;38.00;;;;;;2241137;61;7153;-65
2020/12/22 07:30:44;1299582.00;4.33;2271.34;0.00;0.00;0.62;;;;;24.60;38.20;;;;;;2242848;61;6210;-64
2020/12/22 07:33:15;1319003.00;4.40;2306.93;6902.00;0.02;12.58;;;;;24.60;38.40;;;;;;2243080;61;7466;-66
2020/12/22 07:35:48;1632593.00;5.44;2895.19;630.00;0.00;1.71;;;;;24.70;38.30;;;;;;2242595;61;7263;-65
2020/12/22 07:38:15;1536680.00;5.12;2712.33;15772.00;0.05;27.95;;;;;24.80;38.10;;;;;;2241166;61;5495;-65
2020/12/22 07:40:42;1693427.00;5.64;3012.66;8258.00;0.03;14.93;;;;;24.90;38.60;;;;;;2239435;61;7367;-66
2020/12/22 07:43:13;1481941.00;4.94;2609.18;0.00;0.00;0.62;;;;;24.90;39.40;;;;;;2243145;61;7261;-65
2020/12/22 07:45:47;1855914.00;6.19;3332.54;31445.00;0.10;55.08;;;;;24.90;40.30;;;;;;2240777;61;7582;-65
2020/12/22 07:48:18;2345945.00;7.82;4360.55;261469.00;0.87;451.67;;;;;25.10;40.50;;;;;;2239128;61;7147;-65
2020/12/22 07:50:52;1995889.00;6.65;3615.89;206464.00;0.69;357.05;;;;;25.20;40.60;;;;;;2242913;61;6787;-65
2020/12/22 07:53:18;950820.00;3.17;1645.56;0.00;0.00;0.62;;;;;25.30;40.50;;;;;;2246586;61;7285;-65
2020/12/22 07:55:49;121966568.00;406.56;73501520.00;0.00;0.00;0.62;;;;;25.30;40.20;;;;;;2240466;61;3953;-65
2020/12/22 07:58:15;1899750.00;6.33;3420.47;0.00;0.00;0.62;;;;;25.40;40.30;;;;;;2242835;61;3949;-65
2020/12/22 08:00:42;1566527.00;5.22;2768.94;0.00;0.00;0.62;;;;;25.40;40.30;;;;;;2244564;61;7190;-64
2020/12/22 08:03:18;1740446.00;5.80;3104.28;0.00;0.00;0.62;;;;;25.40;40.20;;;;;;2242824;61;7230;-64
2020/12/22 08:06:00;1907688.00;6.36;3436.47;0.00;0.00;0.62;;;;;25.40;40.00;;;;;;2242561;61;7331;-65
2020/12/22 08:08:27;863072.00;2.88;1491.35;0.00;0.00;0.62;;;;;25.40;39.80;;;;;;2243135;61;7418;-65
2020/12/22 08:10:53;1603850.00;5.35;2840.10;7794.00;0.03;14.13;;;;;25.50;39.90;;;;;;2243864;61;7568;-64
2020/12/22 08:13:26;1239526.00;4.13;2161.85;0.00;0.00;0.62;;;;;25.50;39.70;;;;;;2243890;61;7225;-65
2020/12/22 08:15:53;1192631.00;3.98;2076.90;0.00;0.00;0.62;;;;;25.50;39.50;;;;;;2243493;61;7759;-65
2020/12/22 08:18:20;657078.00;2.19;1132.88;0.00;0.00;0.62;;;;;25.50;39.40;;;;;;2244564;61;7581;-65
2020/12/22 08:20:49;543631.00;1.81;936.98;0.00;0.00;0.62;;;;;25.50;39.20;;;;;;2242640;61;3952;-65
2020/12/22 08:23:17;1048537.00;3.50;1818.63;95626.00;0.32;166.02;;;;;25.50;39.30;;;;;;2243846;61;5649;-65
2020/12/22 08:25:48;1142582.00;3.81;1986.74;0.00;0.00;0.62;;;;;25.50;39.20;;;;;;2240582;61;7680;-65
2020/12/22 08:28:23;924960.00;3.08;1600.00;0.00;0.00;0.62;;;;;25.50;39.00;;;;;;2247396;61;7464;-65
2020/12/22 08:30:49;703612.00;2.35;1213.50;0.00;0.00;0.62;;;;;25.50;39.00;;;;;;2247093;61;7410;-66
2020/12/22 08:33:23;1210469.00;4.03;2109.16;0.00;0.00;0.62;;;;;25.60;39.00;;;;;;2239603;61;6785;-66
2020/12/22 08:35:56;803825.00;2.68;1387.80;0.00;0.00;0.62;;;;;25.50;38.80;;;;;;2244346;61;5670;-65
2020/12/22 08:38:27;665101.00;2.22;1146.77;0.00;0.00;0.62;;;;;25.50;38.90;;;;;;2238653;61;7334;-65
2020/12/22 08:40:55;546375.00;1.82;941.71;0.00;0.00;0.62;;;;;25.60;38.80;;;;;;2243462;61;7412;-65
2020/12/22 08:43:23;779257.00;2.60;1344.97;0.00;0.00;0.62;;;;;25.50;38.80;;;;;;2240612;61;7153;-65
2020/12/22 08:45:50;1003341.00;3.34;1738.39;0.00;0.00;0.62;;;;;25.50;38.80;;;;;;2247462;61;7492;-65
2020/12/22 08:48:17;717550.00;2.39;1237.69;0.00;0.00;0.62;;;;;25.50;38.80;;;;;;2242901;61;7324;-65
2020/12/22 08:50:51;958074.00;3.19;1658.35;0.00;0.00;0.62;;;;;25.60;38.80;;;;;;2240094;61;7248;-65
2020/12/22 08:53:34;1203210.00;4.01;2096.03;80243.00;0.27;139.46;;;;;25.50;38.80;;;;;;2244060;61;5754;-65
2020/12/22 08:56:10;1527570.00;5.09;2695.11;15358.00;0.05;27.23;;;;;25.40;38.80;;;;;;2243072;61;7506;-66
2020/12/22 08:58:53;827032.00;2.76;1428.31;6768.00;0.02;12.35;;;;;25.50;38.90;;;;;;2236941;61;7425;-65
2020/12/22 09:01:37;657075.00;2.19;1132.88;5032.00;0.02;9.34;;;;;25.40;38.80;;;;;;2242797;61;7339;-66
2020/12/22 09:04:04;1312857.00;4.38;2295.65;7043.00;0.02;12.83;;;;;25.40;38.90;;;;;;2242738;61;5885;-66
2020/12/22 09:06:33;3052936.00;10.18;6058.11;24401.00;0.08;42.89;;;;;25.40;38.80;;;;;;2239871;61;5621;-65
2020/12/22 09:09:16;3098997.00;10.33;6179.25;22074.00;0.07;38.86;;;;;25.40;38.80;;;;;;2243653;61;7562;-65
2020/12/22 09:11:45;3191027.00;10.64;6425.59;11115.00;0.04;19.88;;;;;25.40;38.70;;;;;;2242911;61;7131;-65
2020/12/22 09:14:17;121856336.00;406.19;73302200.00;0.00;0.00;0.62;;;;;25.50;38.70;;;;;;2240580;61;5982;-65
2020/12/22 09:16:55;2596203.00;8.65;4929.04;0.00;0.00;0.62;;;;;25.50;38.60;;;;;;2241126;61;8212;-66
2020/12/22 09:19:28;2422272.00;8.07;4530.52;6913.00;0.02;12.60;;;;;25.50;39.00;;;;;;2245257;61;7248;-65
2020/12/22 09:22:02;2575019.00;8.58;4879.64;16291.00;0.05;28.85;;;;;25.50;39.30;;;;;;2241720;61;6373;-65
2020/12/22 09:24:29;2171443.00;7.24;3982.50;222.00;0.00;1.00;;;;;25.50;39.50;;;;;;2241543;61;7111;-65
2020/12/22 09:27:05;2342509.00;7.81;4352.97;12260.00;0.04;21.86;;;;;25.60;39.30;;;;;;2243071;61;7402;-66
2020/12/22 09:29:32;1828223.00;6.09;3277.37;12107.00;0.04;21.60;;;;;25.70;39.20;;;;;;2242913;61;7428;-66
2020/12/22 09:32:03;123160632.00;410.54;75683544.00;0.00;0.00;0.62;;;;;25.80;38.90;;;;;;2241146;61;5524;-66